createdAt,value
2022-07-31T00:00:01.405Z,25.2
2022-07-31T00:05:01.263Z,25.7
2022-07-31T00:10:01.462Z,26.1
2022-07-31T00:15:01.261Z,26.6
2022-07-31T00:20:06.338Z,26.2
2022-07-31T00:25:01.264Z,25.9
2022-07-31T00:40:01.772Z,26.5
2022-07-31T00:45:01.557Z,27.5
2022-07-31T00:50:01.355Z,28.8
2022-07-31T00:55:06.271Z,30.1
2022-07-31T01:00:01.495Z,32.5
2022-07-31T01:05:01.619Z,32.9
2022-07-31T01:15:01.292Z,32.6
2022-07-31T01:20:01.480Z,32.8
2022-07-31T01:25:01.260Z,33.1
2022-07-31T01:30:01.329Z,32.5
2022-07-31T01:35:01.581Z,32.8
2022-07-31T01:40:01.330Z,33.0
2022-07-31T01:45:01.265Z,33.3
2022-07-31T01:50:01.907Z,33.1
2022-07-31T01:55:01.263Z,32.8
2022-07-31T02:05:02.355Z,32.6
2022-07-31T02:10:01.355Z,32.8
2022-07-31T02:15:01.330Z,31.8
2022-07-31T02:20:01.324Z,32.6
2022-07-31T02:25:01.265Z,32.9
2022-07-31T02:30:01.407Z,33.0
2022-07-31T02:35:01.267Z,32.7
2022-07-31T02:45:01.459Z,33.0
2022-07-31T02:50:02.285Z,32.3
2022-07-31T02:55:01.258Z,32.7
2022-07-31T03:05:01.256Z,33.0
2022-07-31T03:10:01.637Z,33.4
2022-07-31T03:20:02.414Z,32.6
2022-07-31T03:25:01.263Z,32.9
2022-07-31T03:35:01.278Z,32.8
2022-07-31T03:40:01.492Z,33.1
2022-07-31T03:55:01.468Z,33.7
2022-07-31T04:00:01.324Z,33.5
2022-07-31T04:05:01.325Z,33.2
2022-07-31T04:10:01.389Z,33.0
2022-07-31T04:20:02.610Z,31.7
2022-07-31T04:30:03.142Z,32.9
2022-07-31T04:35:01.267Z,33.0
2022-07-31T04:55:01.258Z,33.2
2022-07-31T05:00:01.848Z,34.9
2022-07-31T05:10:01.460Z,36.4
2022-07-31T05:20:01.398Z,36.4
2022-07-31T05:25:01.318Z,37.3
2022-07-31T05:35:01.377Z,35.7
2022-07-31T05:45:01.519Z,34.6
2022-07-31T05:50:01.344Z,33.9
2022-07-31T05:55:01.330Z,33.1
2022-07-31T06:00:04.402Z,32.0
2022-07-31T06:05:02.596Z,31.4
2022-07-31T06:15:01.352Z,30.3
2022-07-31T06:25:02.551Z,28.2
2022-07-31T06:30:01.346Z,26.1
2022-07-31T06:35:01.286Z,24.8
2022-07-31T06:40:01.391Z,22.7
2022-07-31T06:45:01.480Z,21.3
2022-07-31T06:50:01.378Z,21.6
2022-07-31T06:55:01.287Z,21.7
2022-07-31T07:00:15.118Z,20.4
2022-07-31T07:05:07.080Z,20.3
2022-07-31T07:10:01.421Z,18.7
2022-07-31T07:15:01.331Z,17.1
2022-07-31T07:20:01.538Z,16.4
2022-07-31T07:25:01.480Z,15.4
2022-07-31T07:30:01.462Z,13.9
2022-07-31T07:35:01.550Z,12.9
2022-07-31T07:40:04.327Z,12.3
2022-07-31T07:45:07.306Z,11.4
2022-07-31T07:50:01.367Z,10.8
2022-07-31T08:00:01.404Z,10.1
2022-07-31T08:05:01.258Z,9.8
2022-07-31T08:10:01.341Z,8.8
2022-07-31T08:15:01.272Z,8.2
2022-07-31T08:20:01.327Z,7.1
2022-07-31T08:25:11.265Z,7.4
2022-07-31T08:35:01.325Z,7.8
2022-07-31T08:40:01.329Z,7.6
2022-07-31T08:50:01.390Z,7.0
2022-07-31T08:55:01.289Z,7.4
2022-07-31T09:00:01.398Z,7.1
2022-07-31T09:05:02.302Z,7.1
2022-07-31T09:15:01.466Z,7.5
2022-07-31T09:20:01.331Z,7.5
2022-07-31T09:25:02.291Z,6.7
2022-07-31T09:30:01.328Z,6.3
2022-07-31T09:35:01.266Z,6.3
2022-07-31T09:40:02.103Z,5.9
2022-07-31T09:45:01.341Z,6.1
2022-07-31T10:05:01.081Z,6.8
2022-07-31T10:10:01.167Z,7.2
2022-07-31T10:15:01.049Z,6.2
2022-07-31T10:25:01.172Z,6.1
2022-07-31T10:30:01.177Z,6.4
2022-07-31T10:35:01.217Z,5.9
2022-07-31T10:40:01.361Z,6.0
2022-07-31T10:45:00.983Z,5.8
2022-07-31T10:55:01.264Z,5.4
2022-07-31T11:00:01.133Z,5.4
2022-07-31T11:05:06.037Z,5.6
2022-07-31T11:10:01.151Z,5.6
2022-07-31T11:25:01.318Z,6.4
2022-07-31T11:30:07.924Z,7.2
2022-07-31T11:35:00.980Z,6.8
2022-07-31T11:45:01.305Z,6.6
2022-07-31T11:50:01.294Z,6.8
2022-07-31T11:55:09.540Z,6.5
2022-07-31T12:00:01.086Z,6.7
2022-07-31T12:05:00.992Z,6.9
2022-07-31T12:10:03.998Z,6.7
2022-07-31T12:15:00.993Z,6.4
2022-07-31T12:20:00.985Z,6.6
2022-07-31T12:25:03.129Z,6.5
2022-07-31T12:30:01.147Z,6.3
2022-07-31T12:35:01.093Z,6.7
2022-07-31T12:40:01.926Z,7.0
2022-07-31T12:50:01.022Z,7.0
2022-07-31T12:55:01.020Z,7.4
2022-07-31T13:00:01.631Z,7.2
2022-07-31T13:05:01.018Z,7.2
2022-07-31T13:15:01.030Z,7.6
2022-07-31T13:20:01.269Z,7.4
2022-07-31T13:25:01.022Z,7.6
2022-07-31T13:30:03.783Z,7.4
2022-07-31T13:40:01.021Z,6.7
2022-07-31T13:45:08.722Z,6.9
2022-07-31T13:50:01.157Z,6.5
2022-07-31T13:55:01.028Z,6.8
2022-07-31T14:00:01.233Z,7.0
2022-07-31T14:05:01.091Z,6.8
2022-07-31T14:10:01.267Z,6.7
2022-07-31T14:15:01.162Z,6.6
2022-07-31T14:20:01.165Z,6.4
2022-07-31T14:25:02.046Z,6.0
2022-07-31T14:30:06.222Z,6.2
2022-07-31T14:35:08.525Z,5.9
2022-07-31T14:40:01.238Z,6.2
2022-07-31T14:45:02.030Z,6.6
2022-07-31T14:50:14.863Z,6.9
2022-07-31T14:55:01.000Z,6.9
2022-07-31T15:00:01.075Z,7.1
2022-07-31T15:10:00.980Z,6.8
2022-07-31T15:15:01.066Z,7.3
2022-07-31T15:20:01.074Z,7.5
2022-07-31T15:25:01.029Z,8.0
2022-07-31T15:30:08.183Z,8.7
2022-07-31T15:35:01.001Z,9.2
2022-07-31T15:45:01.231Z,10.2
2022-07-31T15:50:01.201Z,11.0
2022-07-31T15:55:01.009Z,11.9
2022-07-31T16:00:01.197Z,12.7
2022-07-31T16:05:21.900Z,13.7
2022-07-31T16:10:17.443Z,14.0
2022-07-31T16:15:02.608Z,14.4
2022-07-31T16:20:01.456Z,14.7
2022-07-31T16:25:01.097Z,15.1
2022-07-31T16:30:03.248Z,15.3
2022-07-31T16:35:01.978Z,16.0
2022-07-31T16:40:04.600Z,16.4
2022-07-31T16:45:01.006Z,16.7
2022-07-31T16:55:01.312Z,17.9
2022-07-31T17:00:01.078Z,18.5
2022-07-31T17:05:01.257Z,19.5
2022-07-31T17:10:02.169Z,20.8
2022-07-31T17:15:01.009Z,22.5
2022-07-31T17:20:01.080Z,23.7
2022-07-31T17:25:01.272Z,24.1
2022-07-31T17:30:01.220Z,25.4
2022-07-31T17:35:01.016Z,26.0
2022-07-31T17:45:01.026Z,26.7
2022-07-31T17:50:01.201Z,27.6
2022-07-31T17:55:01.089Z,27.4
2022-07-31T18:00:01.091Z,28.2
2022-07-31T18:10:01.109Z,27.5
2022-07-31T18:15:01.023Z,27.7
2022-07-31T18:20:01.098Z,27.6
2022-07-31T18:30:01.089Z,28.3
2022-07-31T18:35:01.091Z,29.0
2022-07-31T18:40:01.374Z,29.2
2022-07-31T18:45:01.122Z,29.6
2022-07-31T18:55:01.163Z,28.3
2022-07-31T19:00:01.275Z,27.9
2022-07-31T19:05:01.290Z,27.4
2022-07-31T19:10:01.079Z,25.4
2022-07-31T19:15:01.246Z,23.9
2022-07-31T19:25:01.007Z,19.7
2022-07-31T19:30:01.174Z,16.7
2022-07-31T19:35:01.323Z,14.9
2022-07-31T19:40:01.184Z,14.2
2022-07-31T19:45:01.323Z,13.0
2022-07-31T19:50:01.546Z,11.6
2022-07-31T19:55:01.034Z,11.2
2022-07-31T20:00:01.242Z,11.0
2022-07-31T20:05:01.032Z,9.8
2022-07-31T20:10:01.158Z,9.7
2022-07-31T20:15:01.046Z,9.9
2022-07-31T20:20:16.308Z,10.4
2022-07-31T20:25:20.237Z,10.6
2022-07-31T20:30:02.104Z,10.4
2022-07-31T20:35:01.027Z,9.8
2022-07-31T20:40:01.781Z,9.2
2022-07-31T20:45:01.049Z,8.7
2022-07-31T20:50:01.640Z,8.6
2022-07-31T20:55:01.375Z,9.3
2022-07-31T21:05:01.039Z,11.0
2022-07-31T21:10:06.371Z,11.9
2022-07-31T21:15:01.341Z,12.8
2022-07-31T21:20:07.019Z,12.9
2022-07-31T21:25:01.025Z,14.1
2022-07-31T21:30:01.091Z,14.0
2022-07-31T21:35:01.025Z,14.7
2022-07-31T21:45:02.691Z,14.9
2022-07-31T21:50:01.468Z,15.0
2022-07-31T21:55:01.390Z,15.8
2022-07-31T22:00:01.159Z,15.5
2022-07-31T22:05:01.023Z,15.8
2022-07-31T22:10:01.497Z,17.2
2022-07-31T22:15:01.330Z,17.6
2022-07-31T22:20:01.142Z,18.1
2022-07-31T22:25:01.071Z,19.1
2022-07-31T22:30:02.287Z,19.2
2022-07-31T22:35:01.082Z,19.5
2022-07-31T22:40:01.406Z,19.9
2022-07-31T22:45:01.086Z,21.8
2022-07-31T22:50:01.189Z,23.7
2022-07-31T22:55:01.283Z,26.1
2022-07-31T23:00:06.166Z,27.9
2022-07-31T23:05:01.036Z,29.3
2022-07-31T23:10:01.269Z,29.6
2022-07-31T23:15:06.169Z,29.2
2022-07-31T23:20:01.101Z,30.0
2022-07-31T23:25:01.040Z,30.0
2022-07-31T23:30:01.902Z,30.2
2022-07-31T23:35:01.043Z,30.5
2022-07-31T23:40:01.198Z,30.5
2022-07-31T23:45:01.045Z,30.4
2022-07-31T23:50:01.157Z,31.0
2022-07-31T23:55:01.042Z,31.4
